All Ways — CRA5623 — position and weather

sailwx.info

Track history (hours):
 
Tides and Currents Weather Stations Pressure Air Temp Water Temp Dewpoint Dewpoint Depression Visibility Wind Speed Wind Dir Waves Ship Positions

All Ways

Last reported at 2018-Jun-25 09:30 UTC. Time now 2018-Jun-25 09:37 UTC.
Position N 38°42' W 009°11'.

Length 11 m.

Type: Sailing vessel. MMSI: 263933950.

Date/timePositionNaut miles runAvg speedWind from/ knotsBaromVisibWave heightAir tempDewpointWater temp
2018-Jun-25 09:30N 38°42' W 009°11'1 0.2
2018-Jun-25 05:35N 38°42' W 009°12'0 0.0
2018-Jun-25 05:30N 38°42' W 009°12'0 0.0
2018-Jun-25 03:49N 38°42' W 009°12'0 0.0
2018-Jun-24 20:02N 38°41' W 009°12'0 4.7
2018-Jun-24 20:00N 38°41' W 009°12'2 4.6
2018-Jun-24 19:29N 38°42' W 009°09'1 1.6
2018-Jun-24 18:43N 38°42' W 009°10'1 4.7
2018-Jun-24 18:29N 38°42' W 009°12'0 0.9
2018-Jun-24 18:00N 38°42' W 009°12'0 0.2
2018-Jun-24 16:54N 38°42' W 009°12'3 4.0
2018-Jun-24 16:14N 38°42' W 009°09'0 1.9
2018-Jun-24 16:00N 38°42' W 009°08'3 4.6
2018-Jun-24 15:26N 38°42' W 009°11'1 0.1
2018-Jun-24 09:27N 38°42' W 009°12'0 0.0
2018-Jun-24 08:53N 38°42' W 009°12'0 0.0
2018-Jun-24 08:28N 38°42' W 009°12'0 0.0
2018-Jun-23 21:26N 38°42' W 009°12'1 1.6
2018-Jun-23 20:56N 38°41' W 009°11'1 1.7
2018-Jun-23 20:28N 38°41' W 009°10'1 2.4
2018-Jun-23 19:58N 38°41' W 009°12'2 4.0
2018-Jun-23 19:25N 38°41' W 009°09'1 1.8
2018-Jun-23 18:54N 38°42' W 009°08'4 7.9
2018-Jun-23 18:24N 38°41' W 009°13'1 1.4
2018-Jun-23 17:58N 38°42' W 009°12'0 0.1
2018-Jun-23 15:26N 38°42' W 009°12'1 1.5
2018-Jun-23 14:59N 38°41' W 009°11'1 1.7
2018-Jun-23 14:21N 38°42' W 009°12'1 4.4
2018-Jun-23 14:00N 38°42' W 009°11'1 1.6
2018-Jun-23 13:10N 38°42' W 009°12'0 0.0
2018-Jun-23 11:04N 38°42' W 009°12'0 0.0
2018-Jun-23 10:58N 38°42' W 009°12'0 0.0
2018-Jun-23 06:58N 38°42' W 009°12'0 0.0
2018-Jun-23 06:20N 38°42' W 009°12'0 0.0
2018-Jun-23 03:52N 38°42' W 009°12'0 0.0
2018-Jun-23 01:52N 38°42' W 009°12'0 0.0
2018-Jun-22 20:10N 38°42' W 009°12'1 4.9
2018-Jun-22 20:00N 38°41' W 009°11'2 4.4
2018-Jun-22 19:30N 38°41' W 009°09'1 1.6
2018-Jun-22 18:58N 38°42' W 009°08'3 5.0
2018-Jun-22 18:23N 38°42' W 009°12'0 0.1
2018-Jun-22 16:18N 38°42' W 009°12'0 0.0
2018-Jun-22 11:08N 38°42' W 009°12'0 0.0
2018-Jun-22 05:00N 38°42' W 009°12'0 0.0
2018-Jun-22 02:14N 38°42' W 009°12'1 0.1
2018-Jun-21 20:02N 38°41' W 009°12'1 1.6
2018-Jun-21 19:40N 38°41' W 009°11'1 3.3
2018-Jun-21 19:30N 38°41' W 009°10'2 4.4
2018-Jun-21 19:00N 38°42' W 009°08'4 5.6
2018-Jun-21 18:23N 38°42' W 009°12'0 0.3
2018-Jun-21 17:58N 38°42' W 009°12'0 0.3
2018-Jun-21 17:29N 38°42' W 009°12'3 5.0
2018-Jun-21 16:55N 38°41' W 009°16'2 4.4
2018-Jun-21 16:26N 38°41' W 009°18'2 4.3
2018-Jun-21 15:59N 38°41' W 009°21'2 4.3
2018-Jun-21 15:30N 38°41' W 009°23'1 2.4
2018-Jun-21 15:00N 38°42' W 009°25'1 1.7
2018-Jun-21 14:30N 38°41' W 009°24'0 0.6
2018-Jun-21 13:58N 38°42' W 009°24'1 0.6
2018-Jun-21 12:49N 38°42' W 009°25'0 0.2
2018-Jun-21 12:28N 38°42' W 009°25'2 3.9
2018-Jun-21 11:58N 38°41' W 009°23'3 6.6
2018-Jun-21 11:28N 38°41' W 009°18'3 6.9
2018-Jun-21 11:00N 38°41' W 009°14'2 1.6
2018-Jun-21 10:03N 38°42' W 009°12'0 0.0
2018-Jun-21 08:15N 38°42' W 009°12'0 0.0
2018-Jun-21 04:45N 38°42' W 009°12'0 0.0
2018-Jun-21 01:48N 38°42' W 009°12'1 0.1
2018-Jun-20 20:36N 38°41' W 009°12'0 2.0
2018-Jun-20 20:24N 38°41' W 009°11'1 2.7
2018-Jun-20 19:58N 38°41' W 009°10'1 2.6
2018-Jun-20 19:29N 38°42' W 009°08'0 0.8
2018-Jun-20 19:00N 38°42' W 009°09'3 5.8
2018-Jun-20 18:31N 38°41' W 009°12'0 0.2
2018-Jun-20 16:45N 38°42' W 009°13'0 0.4
2018-Jun-20 16:29N 38°42' W 009°13'1 2.2
2018-Jun-20 15:59N 38°42' W 009°11'2 1.6
2018-Jun-20 14:52N 38°41' W 009°13'1 1.4
2018-Jun-20 14:18N 38°41' W 009°12'0 0.6
2018-Jun-20 13:50N 38°42' W 009°13'0 0.1
2018-Jun-20 13:15N 38°42' W 009°13'0 0.0
2018-Jun-20 00:03N 38°42' W 009°12'0 0.0
2018-Jun-19 23:33N 38°42' W 009°12'0 0.0
2018-Jun-19 23:15N 38°42' W 009°12'0 0.0
2018-Jun-19 14:44N 38°42' W 009°12'0 0.0
2018-Jun-19 02:42N 38°42' W 009°12'0 0.0
2018-Jun-18 10:57N 38°42' W 009°12'0 0.0
2018-Jun-18 08:57N 38°42' W 009°12'0 0.0
2018-Jun-18 08:30N 38°42' W 009°12'0 0.0
2018-Jun-18 07:30N 38°42' W 009°12'0 0.0
2018-Jun-18 05:33N 38°42' W 009°12'0 0.0
2018-Jun-18 05:27N 38°42' W 009°12'0 0.0
2018-Jun-18 03:48N 38°42' W 009°12'0 0.0
2018-Jun-18 03:03N 38°42' W 009°12'0 0.0
2018-Jun-17 23:15N 38°42' W 009°12'0 0.0
2018-Jun-17 20:00N 38°42' W 009°12'0 0.0
2018-Jun-17 19:12N 38°42' W 009°12'0 0.0
2018-Jun-17 14:33N 38°42' W 009°12'0 0.0
2018-Jun-17 14:21N 38°42' W 009°12'0 0.0
2018-Jun-17 13:54N 38°42' W 009°12'0 0.0
2018-Jun-17 12:54N 38°42' W 009°12'2 4.2
2018-Jun-17 12:30N 38°41' W 009°14'3 5.1
2018-Jun-17 11:59N 38°41' W 009°18'1 0.9
2018-Jun-17 11:12N 38°41' W 009°18'0 0.1
2018-Jun-17 11:01N 38°41' W 009°18'1 2.1
2018-Jun-17 10:28N 38°40' W 009°19'2 4.7
2018-Jun-17 10:00N 38°41' W 009°17'2 4.9
2018-Jun-17 09:30N 38°41' W 009°14'1 0.3
2018-Jun-17 04:38N 38°42' W 009°12'0 0.0
2018-Jun-17 04:08N 38°42' W 009°12'0 0.0
2018-Jun-17 03:59N 38°42' W 009°12'0 0.0
2018-Jun-17 03:29N 38°42' W 009°12'0 0.0
2018-Jun-17 02:35N 38°42' W 009°12'0 0.1
2018-Jun-17 02:29N 38°42' W 009°12'0 0.0
2018-Jun-17 01:02N 38°42' W 009°12'0 0.0
2018-Jun-16 20:50N 38°42' W 009°12'0 0.0
2018-Jun-16 20:29N 38°42' W 009°12'0 0.1
2018-Jun-16 20:00N 38°42' W 009°12'2 3.5
2018-Jun-16 19:29N 38°41' W 009°10'1 2.2
2018-Jun-16 18:59N 38°42' W 009°09'2 3.5
2018-Jun-16 18:21N 38°42' W 009°12'0 0.6
2018-Jun-16 17:53N 38°42' W 009°12'2 2.8
2018-Jun-16 17:18N 38°42' W 009°10'2 5.3
2018-Jun-16 17:00N 38°42' W 009°08'3 2.0
2018-Jun-16 15:27N 38°42' W 009°12'0 0.0
2018-Jun-16 13:59N 38°42' W 009°12'1 2.4
2018-Jun-16 13:30N 38°41' W 009°11'3 5.5
2018-Jun-16 13:00N 38°42' W 009°14'0 0.1
2018-Jun-16 12:23N 38°42' W 009°14'0 0.0
2018-Jun-16 11:46N 38°42' W 009°14'0 0.8
2018-Jun-16 11:25N 38°42' W 009°14'2 1.2
2018-Jun-16 10:10N 38°42' W 009°12'0 0.0
2018-Jun-16 09:58N 38°42' W 009°12'0 0.0
2018-Jun-16 07:43N 38°42' W 009°12'0 0.0
2018-Jun-16 06:37N 38°42' W 009°12'0 0.0
2018-Jun-16 06:25N 38°42' W 009°12'0 0.0
2018-Jun-16 04:04N 38°42' W 009°12'0 0.0
2018-Jun-16 03:55N 38°42' W 009°12'0 0.0
2018-Jun-16 03:28N 38°42' W 009°12'0 0.0
2018-Jun-16 01:10N 38°42' W 009°12'0 0.0
2018-Jun-16 00:52N 38°42' W 009°12'0 0.0
2018-Jun-16 00:07N 38°42' W 009°12'0 0.0
2018-Jun-15 14:22N 38°42' W 009°12'0 0.0
2018-Jun-15 12:55N 38°42' W 009°12'0 0.0
2018-Jun-15 09:31N 38°42' W 009°12'  
Track history (hours):
 
Tides and Currents Weather Stations Pressure Air Temp Water Temp Dewpoint Dewpoint Depression Visibility Wind Speed Wind Dir Waves Ship Positions

All Ways

Last reported at 2018-Jun-25 09:30 UTC. Time now 2018-Jun-25 09:37 UTC.
Position N 38°42' W 009°11'.

Length 11 m.

Type: Sailing vessel. MMSI: 263933950.

Date/timePositionNaut miles runAvg speedWind from/ knotsBaromVisibWave heightAir tempDewpointWater temp
2018-Jun-25 09:30N 38°42' W 009°11'1 0.2
2018-Jun-25 05:35N 38°42' W 009°12'0 0.0
2018-Jun-25 05:30N 38°42' W 009°12'0 0.0
2018-Jun-25 03:49N 38°42' W 009°12'0 0.0
2018-Jun-24 20:02N 38°41' W 009°12'0 4.7
2018-Jun-24 20:00N 38°41' W 009°12'2 4.6
2018-Jun-24 19:29N 38°42' W 009°09'1 1.6
2018-Jun-24 18:43N 38°42' W 009°10'1 4.7
2018-Jun-24 18:29N 38°42' W 009°12'0 0.9
2018-Jun-24 18:00N 38°42' W 009°12'0 0.2
2018-Jun-24 16:54N 38°42' W 009°12'3 4.0
2018-Jun-24 16:14N 38°42' W 009°09'0 1.9
2018-Jun-24 16:00N 38°42' W 009°08'3 4.6
2018-Jun-24 15:26N 38°42' W 009°11'1 0.1
2018-Jun-24 09:27N 38°42' W 009°12'0 0.0
2018-Jun-24 08:53N 38°42' W 009°12'0 0.0
2018-Jun-24 08:28N 38°42' W 009°12'0 0.0
2018-Jun-23 21:26N 38°42' W 009°12'1 1.6
2018-Jun-23 20:56N 38°41' W 009°11'1 1.7
2018-Jun-23 20:28N 38°41' W 009°10'1 2.4
2018-Jun-23 19:58N 38°41' W 009°12'2 4.0
2018-Jun-23 19:25N 38°41' W 009°09'1 1.8
2018-Jun-23 18:54N 38°42' W 009°08'4 7.9
2018-Jun-23 18:24N 38°41' W 009°13'1 1.4
2018-Jun-23 17:58N 38°42' W 009°12'0 0.1
2018-Jun-23 15:26N 38°42' W 009°12'1 1.5
2018-Jun-23 14:59N 38°41' W 009°11'1 1.7
2018-Jun-23 14:21N 38°42' W 009°12'1 4.4
2018-Jun-23 14:00N 38°42' W 009°11'1 1.6
2018-Jun-23 13:10N 38°42' W 009°12'0 0.0
2018-Jun-23 11:04N 38°42' W 009°12'0 0.0
2018-Jun-23 10:58N 38°42' W 009°12'0 0.0
2018-Jun-23 06:58N 38°42' W 009°12'0 0.0
2018-Jun-23 06:20N 38°42' W 009°12'0 0.0
2018-Jun-23 03:52N 38°42' W 009°12'0 0.0
2018-Jun-23 01:52N 38°42' W 009°12'0 0.0
2018-Jun-22 20:10N 38°42' W 009°12'1 4.9
2018-Jun-22 20:00N 38°41' W 009°11'2 4.4
2018-Jun-22 19:30N 38°41' W 009°09'1 1.6
2018-Jun-22 18:58N 38°42' W 009°08'3 5.0
2018-Jun-22 18:23N 38°42' W 009°12'0 0.1
2018-Jun-22 16:18N 38°42' W 009°12'0 0.0
2018-Jun-22 11:08N 38°42' W 009°12'0 0.0
2018-Jun-22 05:00N 38°42' W 009°12'0 0.0
2018-Jun-22 02:14N 38°42' W 009°12'1 0.1
2018-Jun-21 20:02N 38°41' W 009°12'1 1.6
2018-Jun-21 19:40N 38°41' W 009°11'1 3.3
2018-Jun-21 19:30N 38°41' W 009°10'2 4.4
2018-Jun-21 19:00N 38°42' W 009°08'4 5.6
2018-Jun-21 18:23N 38°42' W 009°12'0 0.3
2018-Jun-21 17:58N 38°42' W 009°12'0 0.3
2018-Jun-21 17:29N 38°42' W 009°12'3 5.0
2018-Jun-21 16:55N 38°41' W 009°16'2 4.4
2018-Jun-21 16:26N 38°41' W 009°18'2 4.3
2018-Jun-21 15:59N 38°41' W 009°21'2 4.3
2018-Jun-21 15:30N 38°41' W 009°23'1 2.4
2018-Jun-21 15:00N 38°42' W 009°25'1 1.7
2018-Jun-21 14:30N 38°41' W 009°24'0 0.6
2018-Jun-21 13:58N 38°42' W 009°24'1 0.6
2018-Jun-21 12:49N 38°42' W 009°25'0 0.2
2018-Jun-21 12:28N 38°42' W 009°25'2 3.9
2018-Jun-21 11:58N 38°41' W 009°23'3 6.6
2018-Jun-21 11:28N 38°41' W 009°18'3 6.9
2018-Jun-21 11:00N 38°41' W 009°14'2 1.6
2018-Jun-21 10:03N 38°42' W 009°12'0 0.0
2018-Jun-21 08:15N 38°42' W 009°12'0 0.0
2018-Jun-21 04:45N 38°42' W 009°12'0 0.0
2018-Jun-21 01:48N 38°42' W 009°12'1 0.1
2018-Jun-20 20:36N 38°41' W 009°12'0 2.0
2018-Jun-20 20:24N 38°41' W 009°11'1 2.7
2018-Jun-20 19:58N 38°41' W 009°10'1 2.6
2018-Jun-20 19:29N 38°42' W 009°08'0 0.8
2018-Jun-20 19:00N 38°42' W 009°09'3 5.8
2018-Jun-20 18:31N 38°41' W 009°12'0 0.2
2018-Jun-20 16:45N 38°42' W 009°13'0 0.4
2018-Jun-20 16:29N 38°42' W 009°13'1 2.2
2018-Jun-20 15:59N 38°42' W 009°11'2 1.6
2018-Jun-20 14:52N 38°41' W 009°13'1 1.4
2018-Jun-20 14:18N 38°41' W 009°12'0 0.6
2018-Jun-20 13:50N 38°42' W 009°13'0 0.1
2018-Jun-20 13:15N 38°42' W 009°13'0 0.0
2018-Jun-20 00:03N 38°42' W 009°12'0 0.0
2018-Jun-19 23:33N 38°42' W 009°12'0 0.0
2018-Jun-19 23:15N 38°42' W 009°12'0 0.0
2018-Jun-19 14:44N 38°42' W 009°12'0 0.0
2018-Jun-19 02:42N 38°42' W 009°12'0 0.0
2018-Jun-18 10:57N 38°42' W 009°12'0 0.0
2018-Jun-18 08:57N 38°42' W 009°12'0 0.0
2018-Jun-18 08:30N 38°42' W 009°12'0 0.0
2018-Jun-18 07:30N 38°42' W 009°12'0 0.0
2018-Jun-18 05:33N 38°42' W 009°12'0 0.0
2018-Jun-18 05:27N 38°42' W 009°12'0 0.0
2018-Jun-18 03:48N 38°42' W 009°12'0 0.0
2018-Jun-18 03:03N 38°42' W 009°12'0 0.0
2018-Jun-17 23:15N 38°42' W 009°12'0 0.0
2018-Jun-17 20:00N 38°42' W 009°12'0 0.0
2018-Jun-17 19:12N 38°42' W 009°12'0 0.0
2018-Jun-17 14:33N 38°42' W 009°12'0 0.0
2018-Jun-17 14:21N 38°42' W 009°12'0 0.0
2018-Jun-17 13:54N 38°42' W 009°12'0 0.0
2018-Jun-17 12:54N 38°42' W 009°12'2 4.2
2018-Jun-17 12:30N 38°41' W 009°14'3 5.1
2018-Jun-17 11:59N 38°41' W 009°18'1 0.9
2018-Jun-17 11:12N 38°41' W 009°18'0 0.1
2018-Jun-17 11:01N 38°41' W 009°18'1 2.1
2018-Jun-17 10:28N 38°40' W 009°19'2 4.7
2018-Jun-17 10:00N 38°41' W 009°17'2 4.9
2018-Jun-17 09:30N 38°41' W 009°14'1 0.3
2018-Jun-17 04:38N 38°42' W 009°12'0 0.0
2018-Jun-17 04:08N 38°42' W 009°12'0 0.0
2018-Jun-17 03:59N 38°42' W 009°12'0 0.0
2018-Jun-17 03:29N 38°42' W 009°12'0 0.0
2018-Jun-17 02:35N 38°42' W 009°12'0 0.1
2018-Jun-17 02:29N 38°42' W 009°12'0 0.0
2018-Jun-17 01:02N 38°42' W 009°12'0 0.0
2018-Jun-16 20:50N 38°42' W 009°12'0 0.0
2018-Jun-16 20:29N 38°42' W 009°12'0 0.1
2018-Jun-16 20:00N 38°42' W 009°12'2 3.5
2018-Jun-16 19:29N 38°41' W 009°10'1 2.2
2018-Jun-16 18:59N 38°42' W 009°09'2 3.5
2018-Jun-16 18:21N 38°42' W 009°12'0 0.6
2018-Jun-16 17:53N 38°42' W 009°12'2 2.8
2018-Jun-16 17:18N 38°42' W 009°10'2 5.3
2018-Jun-16 17:00N 38°42' W 009°08'3 2.0
2018-Jun-16 15:27N 38°42' W 009°12'0 0.0
2018-Jun-16 13:59N 38°42' W 009°12'1 2.4
2018-Jun-16 13:30N 38°41' W 009°11'3 5.5
2018-Jun-16 13:00N 38°42' W 009°14'0 0.1
2018-Jun-16 12:23N 38°42' W 009°14'0 0.0
2018-Jun-16 11:46N 38°42' W 009°14'0 0.8
2018-Jun-16 11:25N 38°42' W 009°14'2 1.2
2018-Jun-16 10:10N 38°42' W 009°12'0 0.0
2018-Jun-16 09:58N 38°42' W 009°12'0 0.0
2018-Jun-16 07:43N 38°42' W 009°12'0 0.0
2018-Jun-16 06:37N 38°42' W 009°12'0 0.0
2018-Jun-16 06:25N 38°42' W 009°12'0 0.0
2018-Jun-16 04:04N 38°42' W 009°12'0 0.0
2018-Jun-16 03:55N 38°42' W 009°12'0 0.0
2018-Jun-16 03:28N 38°42' W 009°12'0 0.0
2018-Jun-16 01:10N 38°42' W 009°12'0 0.0
2018-Jun-16 00:52N 38°42' W 009°12'0 0.0
2018-Jun-16 00:07N 38°42' W 009°12'0 0.0
2018-Jun-15 14:22N 38°42' W 009°12'0 0.0
2018-Jun-15 12:55N 38°42' W 009°12'0 0.0
2018-Jun-15 09:31N 38°42' W 009°12'  

Dump ship's entire track history